AirNav   Everest Fuels
 
 1577 users online  

82NC Pineview Air Airport
Sanford, North Carolina, USA

GOING TO SANFORD?


FAA INFORMATION EFFECTIVE 01 DECEMBER 2022

Location

FAA Identifier: 82NC
Lat/Long: 35-18-29.0000N 079-04-24.0000W
35-18.483333N 079-04.400000W
35.3080556,-79.0733333
(estimated)
Elevation: 300 ft. / 91 m (estimated)
Variation: 08W (2000)
From city: 13 miles SSE of SANFORD, NC
Time zone: UTC -5 (UTC -4 during Daylight Saving Time)
Zip code: 27330

Airport Operations

Airport use: Private use. Permission required prior to landing
Activation date: 07/2002
Control tower: no
ARTCC: WASHINGTON CENTER
FSS: RALEIGH FLIGHT SERVICE STATION
Attendance: UNATNDD
Segmented circle: no

Airport Communications

WX AWOS-3PT at SOP (16 nm W): 127.575 (910-692-4287)
WX AWOS-3 at TTA (17 nm N): 120.625 (919-708-5382)
WX AWOS-3 at HRJ (17 nm E): 119.025 (910-814-3946)

Nearby radio navigation aids

VOR radial/distance  VOR name  Freq  Var
FAYr337/21.7FAYETTEVILLE VOR/DME114.8504W
SDZr081/25.8SANDHILLS VORTAC111.8003W
RDUr212/36.7RALEIGH/DURHAM VORTAC117.2009W

 
NDB name  Hdg/Dist  Freq  Var  ID
HARNETT257/20.941708WHQT .... --.- -

Airport Services

Runway Information

Runway 13/31

Dimensions: 1400 x 60 ft. / 427 x 18 m
Surface: turf
RUNWAY 13  RUNWAY 31
Traffic pattern: leftleft
Obstructions: 50 ft. trees50 ft. trees

Airport Ownership and Management from official FAA records

Ownership: Privately-owned
Owner: GROVER D ELLIS
17163 NC27 W
SANFORD, NC 27330
Phone 919-499-9900
CELL: 919-770-0015
Manager: GROVER D ELLIS
17163 NC27 W
SANFORD, NC 27330
Phone 919-499-9900

Airport Operational Statistics

Aircraft based on the field: 2
Single engine airplanes: 2
    

Additional Remarks

OWNER DESIRES CHARTING.
ACFT MONITOR FREQ 122.9.
FOR CD CTC WASHINGTON ARTCC AT 703-771-3587.

Instrument Procedures

There are no published instrument procedures at 82NC.

Some nearby airports with instrument procedures:

KPOB - Pope Army Airfield (9 nm S)
KFBG - Simmons Army Airfield (13 nm SE)
KSOP - Moore County Airport (16 nm W)
KTTA - Raleigh Executive Jetport at Sanford-Lee County Airport (17 nm N)
KHRJ - Harnett Regional Jetport Airport (17 nm E)
5W4 - P K Airpark (18 nm S)
 
Loc | Ops | Rwys | IFR | FBO | Links
Com | Nav | Svcs | Stats | Notes
Area around 82NC (Pineview Air Airport)
 
Road maps at: MapQuest Bing Google
 
Aerial photo
No photo
 
Sectional chart

 
Airport distance calculator
Flying to Pineview Air Airport? Find the distance to fly.

From to 82NC

Sunrise and sunset
Times for 09-Dec-2022
 Local
(UTC-5)
 Zulu
(UTC)
Morning civil twilight06:4611:46
Sunrise07:1412:14
Sunset17:0322:03
Evening civil twilight17:3122:31

Current date and time
Zulu (UTC)  09-Dec-2022 20:23:40
Local (UTC-5)  09-Dec-2022 15:23:40
 
METAR
KPOB 
9nm S 
091955Z AUTO 04007KT 10SM OVC033 13/06 A3019 RMK AO2 SLP227 T01320056
KFBG 
14nm SE 
091955Z AUTO 03004KT 10SM OVC035 13/06 A3018 RMK AO2 SLP223 T01330062
KTTA 
17nm N 
091955Z AUTO 02005KT 10SM OVC050 12/04 A3019 RMK AO2 T01150038
KSOP 
17nm W 
091956Z AUTO 03003KT 10SM BKN024 BKN029 11/07 A3019 RMK AO2 SLP231 T01110072 TSNO
KHRJ 
17nm E 
091955Z AUTO 05008KT 10SM OVC050 13/05 A3021 RMK AO2 T01260048
TAF
KPOB 
9nm S 
091800Z 0918/1024 05007KT 9999 SCT025 BKN035 OVC050 QNH3015INS TX13/0921Z TN06/1011Z LAST NO AMDS AFT 0923 NEXT 1218
KFBG 
14nm SE 
091800Z 0918/1024 04008KT 9999 FEW020 BKN025 QNH3016INS BECMG 0924/1001 04006KT 9999 SCT024 BKN040 QNH3021INS TX13/0920Z TN06/1011Z
NOTAMs
Click for the latest NOTAMs
NOTAMs are issued by the DoD/FAA and will open in a separate window not controlled by AirNav.

 

 
 

Would you like to see your business listed on this page?

 If your business provides an interesting product or service to pilots, flight crews, aircraft, or users of the Pineview Air Airport, you should consider listing it here.  To start the listing process, click on the button below
 
Add a business
 

Other Pages about Pineview Air Airport

Update a link
 
Copyright © AirNav, LLC. All rights reserved. Privacy Policy  Contact